EKBI/BLL METAR and TAF weather

Enter ICAO airport designator
Station Type Date Time Source
EKBI METAR 2020/02/25 00:50 UTC NOAA

EKBI 250050Z AUTO 21010KT 180V240 9999 -SHRA OVC003/// 05/05 Q0987


Station Type Date Time Source
EKBI Decoded METAR 2020/02/25 00:50 UTC NOAA

Billund Lufthavn, Denmark (EKBI) 55-44N 009-10E 79M
Feb 24, 2020 - 07:50 PM EST / 2020.02.25 0050 UTC
Wind: from the SSW (210 degrees) at 12 MPH (10 KT) (direction variable):0
Visibility: greater than 7 mile(s):0
Sky conditions: overcast
Weather: light rain showers
Temperature: 41 F (5 C)
Dew Point: 41 F (5 C)
Relative Humidity: 100%
Pressure (altimeter): 29.15 in. Hg (0987 hPa)
ob: EKBI 250050Z AUTO 21010KT 180V240 9999 -SHRA OVC003/// 05/05 Q0987
cycle: 1

Station Type Date Time Source
EKBI TAF 2020/02/24 21:27 UTC NOAA

TAF
AMD EKBI 242123Z 2421/2518 13015KT 8000 -RADZ BKN008
TEMPO 2421/2424 14015G25KT 1200 RASN BR BKN002
BECMG 2500/2502 24018KT BKN020
TEMPO 2502/2512 24022G35KT 4000 SHRASN BKN012 BKN020CB
TEMPO 2512/2518 25030G45KT 4000 SHRA BKN012 BKN020CB

Example: see airport list